Aeroporto :
LOGIN :

Iscrizione | Disclaimer

   EN    FR    IT 

 










Sommario :    VFR   VFR Marginale   IFR   IFR Intensivo   IFR Molto Intensivo
Visibilità : 
Base nubi : 
>= 8 km
>= 3000ft
5 / 8 km
1000 / 3000 ft
1500m / 5 km
500 / 1000 ft
800 / 1500m
200 / 500 ft
< 800m
< 200 ft
Simboli :   Temporali  Nebbia  Neve Forte  Precipitazioni Forti  Vento > 20 kt
SIGMETs :   Varie  Temporali  Ghiacco  Turbolenza  Onda orograficha  Ceneri Vulcaniche






- Altitudine del aeroporto : 1234 ft
- Codice IATA : LUX


ELLX - Luxembourg Findel

ULTIMO METAR :
  • 181150Z AUTO 20006KT 170V230 9999 NCD 24/18 Q1015 NOSIG

METARs OBSOLETI :
  • 181120Z 22008KT 190V250 CAVOK 26/19 Q1015 NOSIG
  • 181050Z 20007KT CAVOK 26/20 Q1015 TEMPO 5000 SHRA SCT050TCU
  • 181020Z 19008KT 140V230 CAVOK 25/19 Q1015 TEMPO 5000 SHRA SCT050TCU
  • 180950Z 15007KT CAVOK 25/19 Q1014 NOSIG
  • 180920Z 16005KT 120V210 CAVOK 25/19 Q1014 NOSIG
  • 180850Z 11005KT 080V140 CAVOK 23/19 Q1014 NOSIG

TAF TAF ELLX
Valido dal 18 a 12 ore il 19 a 18 ore UTC


181100Z 1812/1918 21008KT CAVOK
TEMPO 1812/1818 5000 SHRA SCT050TCU
PROB40
TEMPO 1812/1818 3000 -TSRA SCT050CB
ATIS : +352 4798 27300
Met : +352 4798 27010 / 27050



MetMap, La meteo Aeronautica in un colpo d'occhio ! - Copyright ORBIFLY Dicembre 2007 - Disclaimer

ORBIFLY MET'MAP TEAM :

Programmazione e sviluppo : Alexandra Zaïnal
Concezione : Baudouin d'Aumeries
Aiuto per la programmazione : Marc-Olivier Méhu
Supporto tecnico e logistico : Manuel Goepfert
Aiuto per la traduzione : Arnaldo La Scala

Contatto : metmap@orbifly.com




FONTI E CREDITI :

   NOAA